Time;durP1;ratioP1;P1;durP2;ratioP2;P2;SDS_P1;SDS_P2;PMS_P1;PMS_P2;Temp;Humidity;BMP_temperature;BMP_pressure;BME280_temperature;BME280_humidity;BME280_pressure;Samples;Min_cycle;Max_cycle;Signal;HPM_P1;HPM_P2
2021/03/12 00:00:57;;;;;;;0.60;0.20;;;6.60;99.90;;;;;;5038910;28;20426;-73
2021/03/12 00:03:27;;;;;;;0.40;0.20;;;6.70;99.90;;;;;;5056041;28;20429;-73
2021/03/12 00:05:55;;;;;;;0.32;0.10;;;6.80;99.90;;;;;;5055921;28;20428;-73
2021/03/12 00:08:23;;;;;;;0.40;0.10;;;6.90;99.90;;;;;;5056400;28;20428;-74
2021/03/12 00:10:50;;;;;;;0.57;0.17;;;7.10;99.90;;;;;;5056604;28;20421;-73
2021/03/12 00:13:18;;;;;;;0.40;0.10;;;7.20;99.90;;;;;;5056013;28;20424;-74
2021/03/12 00:15:45;;;;;;;1.08;0.20;;;7.20;99.90;;;;;;5055444;28;20566;-73
2021/03/12 00:18:12;;;;;;;0.30;0.20;;;7.30;99.90;;;;;;5056228;28;20531;-73
2021/03/12 00:20:40;;;;;;;0.90;0.10;;;7.40;99.90;;;;;;5056533;28;20429;-72
2021/03/12 00:23:08;;;;;;;0.50;0.20;;;7.40;99.90;;;;;;5055783;28;20427;-72
2021/03/12 00:25:37;;;;;;;0.80;0.10;;;7.50;99.90;;;;;;5056040;28;20413;-73
2021/03/12 00:28:05;;;;;;;1.20;0.20;;;7.50;99.90;;;;;;5056808;28;20432;-73
2021/03/12 00:30:32;;;;;;;1.70;0.20;;;7.60;99.90;;;;;;5056504;28;20432;-73
2021/03/12 00:32:59;;;;;;;0.57;0.20;;;7.60;99.90;;;;;;5056062;28;20440;-72
2021/03/12 00:35:25;;;;;;;0.40;0.10;;;7.60;99.90;;;;;;5056036;28;20425;-72
2021/03/12 00:37:53;;;;;;;0.50;0.20;;;7.70;99.90;;;;;;5056043;28;20517;-72
2021/03/12 00:40:23;;;;;;;0.40;0.10;;;7.80;99.90;;;;;;5055092;28;20484;-73
2021/03/12 00:42:49;;;;;;;0.80;0.20;;;7.80;99.90;;;;;;5056194;28;20429;-72
2021/03/12 00:45:17;;;;;;;0.40;0.10;;;7.70;99.90;;;;;;5056265;28;20780;-73
2021/03/12 00:47:44;;;;;;;1.55;0.20;;;7.80;99.90;;;;;;5057158;28;20422;-72
2021/03/12 00:50:13;;;;;;;1.60;0.20;;;7.80;99.90;;;;;;5057312;28;20432;-73
2021/03/12 00:52:41;;;;;;;0.55;0.10;;;7.80;99.90;;;;;;5057475;28;20433;-73
2021/03/12 00:55:10;;;;;;;0.50;0.20;;;7.90;99.90;;;;;;5056664;28;20471;-73
2021/03/12 00:57:36;;;;;;;1.05;0.20;;;8.00;99.90;;;;;;5056487;28;20437;-74
2021/03/12 01:00:06;;;;;;;0.70;0.20;;;8.00;99.90;;;;;;5055985;28;20425;-73
2021/03/12 01:02:33;;;;;;;0.53;0.10;;;8.00;99.90;;;;;;5055778;28;20430;-73
2021/03/12 01:04:59;;;;;;;2.00;0.20;;;8.00;99.90;;;;;;5055889;28;20467;-73
2021/03/12 01:07:26;;;;;;;0.60;0.20;;;8.00;99.90;;;;;;5055784;28;20442;-73
2021/03/12 01:09:53;;;;;;;0.40;0.10;;;8.00;99.90;;;;;;5055569;28;20523;-73
2021/03/12 01:12:20;;;;;;;0.50;0.20;;;7.90;99.90;;;;;;5056081;28;20433;-73
2021/03/12 01:14:47;;;;;;;1.80;0.20;;;8.00;99.90;;;;;;5055819;28;20425;-74
2021/03/12 01:17:13;;;;;;;2.13;0.20;;;8.00;99.90;;;;;;5055839;28;20437;-73
2021/03/12 01:19:40;;;;;;;1.10;0.20;;;8.10;99.90;;;;;;5056060;28;20421;-73
2021/03/12 01:22:06;;;;;;;0.30;0.10;;;8.10;99.90;;;;;;5054407;28;20433;-73
2021/03/12 01:24:33;;;;;;;0.30;0.10;;;8.10;99.90;;;;;;5055991;28;20424;-74
2021/03/12 01:27:00;;;;;;;0.80;0.10;;;8.20;99.90;;;;;;5056268;28;20747;-73
2021/03/12 01:29:27;;;;;;;1.17;0.20;;;8.20;99.90;;;;;;5056348;28;20756;-73
2021/03/12 01:31:54;;;;;;;0.60;0.20;;;8.10;99.90;;;;;;5056168;28;20490;-73
2021/03/12 01:34:20;;;;;;;0.40;0.20;;;8.20;99.90;;;;;;5056446;28;20428;-73
2021/03/12 01:36:47;;;;;;;0.50;0.20;;;8.10;99.90;;;;;;5055893;28;20486;-73
2021/03/12 01:39:14;;;;;;;0.40;0.10;;;8.10;99.90;;;;;;5055242;28;20417;-73
2021/03/12 01:41:40;;;;;;;0.30;0.10;;;8.10;99.90;;;;;;5054302;28;20465;-73
2021/03/12 01:44:07;;;;;;;1.10;0.20;;;8.10;99.90;;;;;;5053869;28;20452;-73
2021/03/12 01:46:35;;;;;;;0.50;0.20;;;8.00;99.90;;;;;;5054695;28;20421;-73
2021/03/12 01:49:01;;;;;;;0.40;0.10;;;8.00;99.90;;;;;;5055042;28;20425;-73
2021/03/12 01:51:28;;;;;;;0.90;0.20;;;8.00;99.90;;;;;;5054008;28;20429;-73
2021/03/12 01:53:55;;;;;;;0.80;0.17;;;7.90;99.90;;;;;;5052236;28;20483;-73
2021/03/12 01:56:21;;;;;;;1.00;0.20;;;7.90;99.90;;;;;;5051525;28;20788;-73
2021/03/12 01:58:48;;;;;;;0.40;0.10;;;8.00;99.90;;;;;;5052507;28;20829;-73
2021/03/12 02:01:15;;;;;;;0.70;0.13;;;8.00;99.90;;;;;;5052022;28;20433;-73
2021/03/12 02:03:42;;;;;;;0.50;0.20;;;8.10;99.90;;;;;;5052315;28;20482;-73
2021/03/12 02:06:09;;;;;;;1.00;0.20;;;8.10;99.90;;;;;;5053013;28;20438;-72
2021/03/12 02:08:35;;;;;;;0.40;0.17;;;8.00;99.90;;;;;;5053778;28;20474;-72
2021/03/12 02:11:02;;;;;;;1.15;0.20;;;7.80;99.90;;;;;;5054079;28;20425;-72
2021/03/12 02:13:38;;;;;;;0.70;0.20;;;7.80;99.90;;;;;;5054992;28;20422;-72
2021/03/12 02:16:11;;;;;;;0.50;0.20;;;7.70;99.90;;;;;;5054892;28;20469;-72
2021/03/12 02:18:45;;;;;;;0.50;0.20;;;7.50;99.90;;;;;;5055636;28;20437;-72
2021/03/12 02:21:18;;;;;;;0.40;0.10;;;7.50;99.90;;;;;;5054558;28;20429;-73
2021/03/12 02:24:00;;;;;;;0.60;0.20;;;7.40;99.90;;;;;;5055232;28;20429;-72
2021/03/12 02:26:40;;;;;;;0.50;0.20;;;7.30;99.90;;;;;;5054955;28;20740;-73
2021/03/12 02:29:10;;;;;;;0.30;0.10;;;7.30;99.90;;;;;;5055424;28;20429;-73
2021/03/12 02:31:37;;;;;;;0.40;0.20;;;7.20;99.90;;;;;;5053639;28;20429;-73
2021/03/12 02:34:06;;;;;;;0.90;0.20;;;7.20;99.90;;;;;;5054979;28;20436;-72
2021/03/12 02:36:36;;;;;;;0.60;0.50;;;7.20;99.90;;;;;;5054411;28;20655;-72
2021/03/12 02:39:05;;;;;;;0.90;0.10;;;7.20;99.90;;;;;;5055289;28;20483;-73
2021/03/12 02:41:33;;;;;;;0.50;0.20;;;7.20;99.90;;;;;;5054360;28;20475;-72
2021/03/12 02:44:02;;;;;;;0.70;0.10;;;7.20;99.90;;;;;;5054518;28;20737;-72
2021/03/12 02:46:30;;;;;;;0.35;0.10;;;7.20;99.90;;;;;;5054537;28;20490;-72
2021/03/12 02:48:57;;;;;;;0.93;0.20;;;7.20;99.90;;;;;;5054435;28;20425;-72
2021/03/12 02:51:24;;;;;;;0.50;0.10;;;7.30;99.90;;;;;;5053832;28;20737;-72
2021/03/12 02:53:51;;;;;;;0.40;0.10;;;7.20;99.90;;;;;;5054956;28;20425;-72
2021/03/12 02:56:19;;;;;;;0.40;0.15;;;7.20;99.90;;;;;;5054051;28;20425;-73
2021/03/12 02:58:47;;;;;;;0.50;0.20;;;7.20;99.90;;;;;;5054245;28;20440;-72
2021/03/12 03:01:14;;;;;;;0.50;0.10;;;7.20;99.90;;;;;;5053746;28;20863;-72
2021/03/12 03:03:43;;;;;;;0.40;0.10;;;7.20;99.90;;;;;;5054331;28;20428;-72
2021/03/12 03:06:10;;;;;;;0.40;0.20;;;7.20;99.90;;;;;;5053982;28;20757;-72
2021/03/12 03:08:38;;;;;;;0.40;0.20;;;7.20;99.90;;;;;;5054105;28;20417;-72
2021/03/12 03:11:07;;;;;;;0.40;0.10;;;7.20;99.90;;;;;;5053945;28;20494;-73
2021/03/12 03:13:35;;;;;;;0.40;0.10;;;7.10;99.90;;;;;;5053789;28;20723;-72
2021/03/12 03:16:02;;;;;;;1.00;0.10;;;7.10;99.90;;;;;;5054057;28;20432;-73
2021/03/12 03:18:32;;;;;;;0.70;0.10;;;7.10;99.90;;;;;;5054400;28;20432;-71
2021/03/12 03:21:01;;;;;;;0.30;0.10;;;7.00;99.90;;;;;;5053454;28;20421;-73
2021/03/12 03:23:28;;;;;;;1.40;0.20;;;7.00;99.90;;;;;;5053498;28;20421;-71
2021/03/12 03:25:55;;;;;;;1.70;0.20;;;7.00;99.90;;;;;;5054383;28;20425;-71
2021/03/12 03:28:22;;;;;;;0.85;0.20;;;7.00;99.90;;;;;;5053606;28;20417;-71
2021/03/12 03:30:48;;;;;;;1.40;0.20;;;7.00;99.90;;;;;;5053362;28;20425;-72
2021/03/12 03:33:15;;;;;;;0.40;0.10;;;7.00;99.90;;;;;;5054102;28;20425;-72
2021/03/12 03:35:41;;;;;;;0.40;0.10;;;7.10;99.90;;;;;;5053550;28;20425;-71
2021/03/12 03:38:09;;;;;;;0.60;0.10;;;7.10;99.90;;;;;;5054056;28;20445;-72
2021/03/12 03:40:35;;;;;;;0.32;0.10;;;7.20;99.90;;;;;;5053604;28;20428;-72
2021/03/12 03:43:04;;;;;;;0.88;0.20;;;7.20;99.90;;;;;;5053451;28;20425;-72
2021/03/12 03:45:33;;;;;;;0.53;0.10;;;7.20;99.90;;;;;;5054336;28;20425;-72
2021/03/12 03:48:00;;;;;;;0.60;0.20;;;7.20;99.90;;;;;;5053690;28;20421;-72
2021/03/12 03:50:28;;;;;;;0.40;0.10;;;7.20;99.90;;;;;;5054178;28;20414;-72
2021/03/12 03:52:56;;;;;;;1.58;0.20;;;7.20;99.90;;;;;;5053671;28;20433;-72
2021/03/12 03:55:25;;;;;;;0.55;0.20;;;7.10;99.90;;;;;;5053718;28;20417;-72
2021/03/12 03:57:52;;;;;;;0.40;0.10;;;7.20;99.90;;;;;;5054025;28;20825;-73
2021/03/12 04:00:20;;;;;;;0.45;0.20;;;7.10;99.90;;;;;;5053624;28;20483;-72
2021/03/12 04:02:48;;;;;;;0.40;0.20;;;7.20;99.90;;;;;;5053548;28;20429;-72
2021/03/12 04:05:15;;;;;;;0.50;0.20;;;7.20;99.90;;;;;;5054010;28;20494;-72
2021/03/12 04:07:43;;;;;;;0.30;0.10;;;7.10;99.90;;;;;;5053661;28;20436;-72
2021/03/12 04:10:11;;;;;;;1.20;0.10;;;7.00;99.90;;;;;;5054408;28;20417;-73
2021/03/12 04:12:39;;;;;;;0.50;0.10;;;7.10;99.90;;;;;;5053388;28;20429;-72
2021/03/12 04:15:07;;;;;;;0.90;0.20;;;7.10;99.90;;;;;;5053086;28;20451;-73
2021/03/12 04:17:35;;;;;;;0.70;0.20;;;7.10;99.90;;;;;;5054141;28;20741;-72
2021/03/12 04:20:04;;;;;;;1.08;0.20;;;7.00;99.90;;;;;;5053095;28;20421;-72
2021/03/12 04:22:30;;;;;;;0.80;0.20;;;7.10;99.90;;;;;;5054305;28;20922;-72
2021/03/12 04:24:57;;;;;;;2.33;0.20;;;7.10;99.90;;;;;;5052934;28;20841;-72
2021/03/12 04:27:24;;;;;;;0.30;0.20;;;7.10;99.90;;;;;;5053476;28;20429;-72
2021/03/12 04:29:52;;;;;;;1.40;0.20;;;7.10;99.90;;;;;;5053460;28;20452;-72
2021/03/12 04:32:20;;;;;;;0.40;0.20;;;7.10;99.90;;;;;;5053349;28;20420;-72
2021/03/12 04:34:47;;;;;;;0.60;0.20;;;7.10;99.90;;;;;;5053738;28;20422;-72
2021/03/12 04:37:14;;;;;;;0.40;0.10;;;7.20;99.90;;;;;;5053520;28;20445;-72
2021/03/12 04:39:41;;;;;;;0.80;0.20;;;7.20;99.90;;;;;;5053495;28;20417;-72
2021/03/12 04:42:11;;;;;;;0.50;0.20;;;7.30;99.90;;;;;;5053090;28;20433;-72
2021/03/12 04:44:37;;;;;;;0.80;0.20;;;7.30;99.90;;;;;;5055815;28;20428;-72
2021/03/12 04:47:06;;;;;;;0.50;0.20;;;7.20;99.90;;;;;;5056728;28;20502;-72
2021/03/12 04:49:33;;;;;;;0.50;0.20;;;7.10;99.90;;;;;;5056538;28;20475;-72
2021/03/12 04:52:00;;;;;;;0.90;0.20;;;7.20;99.90;;;;;;5056706;28;20608;-72
2021/03/12 04:54:29;;;;;;;1.40;0.20;;;7.20;99.90;;;;;;5055869;28;20429;-72
2021/03/12 04:56:56;;;;;;;1.50;0.20;;;7.20;99.90;;;;;;5056506;28;20429;-73
2021/03/12 04:59:22;;;;;;;0.83;0.20;;;7.30;99.90;;;;;;5056937;28;20417;-72
2021/03/12 05:01:49;;;;;;;0.30;0.15;;;7.30;99.90;;;;;;5056255;28;21013;-72
2021/03/12 05:04:17;;;;;;;0.50;0.10;;;7.30;99.90;;;;;;5056081;28;20425;-72
2021/03/12 05:06:45;;;;;;;1.52;0.20;;;7.20;99.90;;;;;;5056020;28;20435;-72
2021/03/12 05:09:12;;;;;;;0.60;0.20;;;7.10;99.90;;;;;;5056807;28;20750;-72
2021/03/12 05:11:39;;;;;;;0.70;0.15;;;7.00;99.90;;;;;;5057131;28;20751;-72
2021/03/12 05:14:07;;;;;;;0.30;0.10;;;6.90;99.90;;;;;;5057734;28;20914;-72
2021/03/12 05:16:33;;;;;;;0.60;0.20;;;7.00;99.90;;;;;;5057556;28;20445;-72
2021/03/12 05:19:00;;;;;;;1.00;0.10;;;7.00;99.90;;;;;;5057947;28;20437;-72
2021/03/12 05:21:27;;;;;;;0.70;0.20;;;7.10;99.90;;;;;;5055544;28;20433;-72
2021/03/12 05:23:54;;;;;;;0.50;0.15;;;7.10;99.90;;;;;;5056601;28;20866;-72
2021/03/12 05:26:20;;;;;;;0.50;0.20;;;7.20;99.90;;;;;;5057486;28;20429;-72
2021/03/12 05:28:47;;;;;;;1.10;0.20;;;7.30;99.90;;;;;;5055558;28;20479;-73
2021/03/12 05:31:13;;;;;;;0.50;0.20;;;7.30;99.90;;;;;;5056235;28;20429;-72
2021/03/12 05:33:40;;;;;;;1.60;0.20;;;7.30;99.90;;;;;;5054770;28;20424;-72
2021/03/12 05:36:07;;;;;;;0.30;0.10;;;7.30;99.90;;;;;;5054427;28;20436;-72
2021/03/12 05:38:34;;;;;;;1.50;0.20;;;7.30;99.90;;;;;;5053687;28;20433;-72
2021/03/12 05:41:02;;;;;;;0.50;0.20;;;7.30;99.90;;;;;;5054184;28;20421;-72
2021/03/12 05:43:28;;;;;;;0.40;0.20;;;7.20;99.90;;;;;;5053709;28;20428;-72
2021/03/12 05:45:59;;;;;;;1.13;0.13;;;7.10;99.90;;;;;;5055193;28;20479;-72
2021/03/12 05:48:25;;;;;;;0.55;0.20;;;7.10;99.90;;;;;;5054919;28;20500;-71
2021/03/12 05:50:52;;;;;;;1.23;0.20;;;7.10;99.90;;;;;;5054390;28;20421;-71
2021/03/12 05:53:20;;;;;;;0.60;0.13;;;7.10;99.90;;;;;;5054531;28;20417;-72
2021/03/12 05:55:50;;;;;;;1.20;0.20;;;7.10;99.90;;;;;;5052953;28;20429;-72
2021/03/12 05:58:16;;;;;;;1.20;0.20;;;7.10;99.90;;;;;;5055444;28;20760;-72
2021/03/12 06:00:43;;;;;;;0.53;0.20;;;7.10;99.90;;;;;;5055517;28;20565;-71
2021/03/12 06:03:09;;;;;;;0.80;0.20;;;7.10;99.90;;;;;;5055056;28;20752;-72
2021/03/12 06:05:36;;;;;;;2.00;0.20;;;7.00;99.90;;;;;;5054676;28;20451;-72
2021/03/12 06:08:02;;;;;;;0.70;0.10;;;7.10;99.90;;;;;;5054216;28;20547;-72
2021/03/12 06:10:29;;;;;;;0.37;0.10;;;7.10;99.90;;;;;;5050888;28;20432;-72
2021/03/12 06:12:56;;;;;;;0.90;0.20;;;7.10;99.90;;;;;;5055361;28;20433;-72
2021/03/12 06:15:34;;;;;;;1.40;0.10;;;7.00;99.90;;;;;;5054889;28;20729;-72
2021/03/12 06:18:11;;;;;;;1.05;0.20;;;7.10;99.90;;;;;;5054463;28;20547;-72
2021/03/12 06:20:38;;;;;;;1.27;0.20;;;7.10;99.90;;;;;;5053819;28;20425;-72
2021/03/12 06:23:04;;;;;;;0.90;0.20;;;7.20;99.90;;;;;;5053991;28;20409;-72
2021/03/12 06:25:31;;;;;;;0.90;0.20;;;7.20;99.90;;;;;;5053003;28;20681;-72
2021/03/12 06:28:16;;;;;;;0.70;0.20;;;7.20;99.90;;;;;;5052688;28;20491;-72
2021/03/12 06:30:43;;;;;;;1.10;0.20;;;7.10;99.90;;;;;;5050519;28;20429;-71
2021/03/12 06:33:25;;;;;;;0.70;0.20;;;7.10;99.90;;;;;;5050240;28;20801;-71
2021/03/12 06:35:52;;;;;;;1.60;0.20;;;7.10;99.90;;;;;;5052614;28;20429;-71
2021/03/12 06:38:18;;;;;;;0.77;0.20;;;7.00;99.90;;;;;;5052985;28;20434;-72
2021/03/12 06:40:45;;;;;;;0.80;0.20;;;7.00;99.90;;;;;;5053394;28;20429;-71
2021/03/12 06:43:14;;;;;;;0.50;0.20;;;7.00;99.90;;;;;;5054195;28;20422;-71
2021/03/12 06:46:01;;;;;;;0.60;0.20;;;7.00;99.90;;;;;;5052813;28;20887;-72
2021/03/12 06:48:30;;;;;;;0.95;0.20;;;6.90;99.90;;;;;;5052646;28;20437;-73
2021/03/12 06:50:58;;;;;;;0.70;0.20;;;6.90;99.90;;;;;;5049818;28;20864;-72
2021/03/12 06:53:28;;;;;;;1.27;0.20;;;6.90;99.90;;;;;;5052484;28;20418;-73
2021/03/12 06:55:56;;;;;;;0.70;0.20;;;6.90;99.90;;;;;;5051394;28;20899;-72
2021/03/12 06:58:26;;;;;;;0.90;0.20;;;7.00;99.90;;;;;;5051897;28;20433;-73
2021/03/12 07:00:53;;;;;;;1.00;0.30;;;7.20;99.90;;;;;;5050258;28;20428;-73
2021/03/12 07:03:25;;;;;;;1.00;0.20;;;7.30;99.90;;;;;;5050195;28;20745;-72
2021/03/12 07:06:16;;;;;;;1.20;0.20;;;7.20;99.90;;;;;;5048729;28;20463;-73
2021/03/12 07:08:45;;;;;;;0.45;0.20;;;6.90;99.90;;;;;;5043792;28;20430;-73
2021/03/12 07:11:23;;;;;;;1.30;0.20;;;6.90;99.90;;;;;;5053330;28;20494;-73
2021/03/12 07:13:52;;;;;;;0.90;0.20;;;6.90;99.90;;;;;;5051160;28;20432;-75
2021/03/12 07:16:21;;;;;;;1.00;0.20;;;7.00;99.90;;;;;;5053070;28;20440;-73
2021/03/12 07:18:49;;;;;;;0.90;0.20;;;6.90;99.90;;;;;;5053011;28;20499;-73
2021/03/12 07:21:18;;;;;;;2.50;0.20;;;6.90;99.90;;;;;;5053452;28;20828;-72
2021/03/12 07:23:45;;;;;;;1.90;0.20;;;7.10;99.90;;;;;;5052613;28;20426;-72
2021/03/12 07:26:14;;;;;;;0.50;0.20;;;7.20;99.90;;;;;;5052132;28;20436;-71
2021/03/12 07:28:42;;;;;;;6.30;0.20;;;7.50;99.90;;;;;;5038405;28;20728;-71
2021/03/12 07:31:12;;;;;;;0.32;0.10;;;7.50;99.90;;;;;;5050952;28;20729;-71
2021/03/12 07:33:41;;;;;;;0.90;0.20;;;7.60;99.90;;;;;;5053600;28;20733;-73
2021/03/12 07:36:10;;;;;;;0.40;0.20;;;7.70;99.90;;;;;;5052376;28;20667;-74
2021/03/12 07:38:40;;;;;;;1.57;0.20;;;7.90;99.90;;;;;;5034002;28;20537;-73
2021/03/12 07:41:07;;;;;;;2.60;0.30;;;7.90;99.90;;;;;;5034401;28;20435;-73
2021/03/12 07:43:35;;;;;;;1.00;0.20;;;7.80;99.90;;;;;;5039871;28;20432;-73
2021/03/12 07:46:03;;;;;;;0.40;0.10;;;7.80;99.90;;;;;;5052761;28;20523;-72
2021/03/12 07:48:31;;;;;;;0.43;0.20;;;7.60;99.90;;;;;;5052527;28;20421;-73
2021/03/12 07:51:12;;;;;;;0.30;0.10;;;7.40;99.90;;;;;;5052735;28;20758;-73
2021/03/12 07:53:50;;;;;;;4.43;0.40;;;7.50;99.90;;;;;;5052308;28;20609;-74
2021/03/12 07:56:17;;;;;;;0.98;0.20;;;7.60;99.90;;;;;;5034689;28;20438;-74
2021/03/12 07:58:57;;;;;;;0.75;0.10;;;7.70;99.90;;;;;;5051501;28;20484;-74
2021/03/12 08:01:25;;;;;;;1.85;0.20;;;7.60;99.90;;;;;;5051611;28;20429;-75
2021/03/12 08:03:54;;;;;;;0.50;0.20;;;7.60;99.90;;;;;;5052791;28;20430;-74
2021/03/12 08:06:29;;;;;;;1.80;0.20;;;7.50;99.90;;;;;;5051427;28;20444;-75
2021/03/12 08:08:56;;;;;;;0.80;0.20;;;7.40;99.90;;;;;;5052077;28;20440;-75
2021/03/12 08:11:25;;;;;;;0.50;0.20;;;7.20;99.90;;;;;;5052016;28;20436;-75
2021/03/12 08:13:52;;;;;;;0.50;0.20;;;7.10;99.90;;;;;;5049362;28;20467;-75
2021/03/12 08:16:19;;;;;;;0.45;0.13;;;7.00;99.90;;;;;;5045938;28;20433;-75
2021/03/12 08:18:46;;;;;;;0.55;0.20;;;7.10;99.90;;;;;;5052203;28;20439;-73
2021/03/12 08:21:36;;;;;;;0.60;0.20;;;7.50;99.90;;;;;;5055055;28;20429;-74
2021/03/12 08:24:03;;;;;;;0.80;0.20;;;7.80;99.90;;;;;;5053506;28;20429;-72
2021/03/12 08:26:52;;;;;;;2.10;0.90;;;7.80;99.90;;;;;;5039424;28;20423;-72
2021/03/12 08:29:38;;;;;;;14.18;7.88;;;7.80;99.90;;;;;;5040446;28;20421;-72
2021/03/12 08:32:38;;;;;;;1.40;0.60;;;8.00;99.90;;;;;;5050848;28;20441;-73
2021/03/12 08:35:06;;;;;;;0.30;0.15;;;8.20;99.90;;;;;;5040148;28;20433;-72
2021/03/12 08:37:43;;;;;;;0.30;0.20;;;8.20;99.90;;;;;;5054656;28;20852;-73
2021/03/12 08:40:24;;;;;;;0.40;0.10;;;8.20;99.90;;;;;;5054269;28;21118;-73
2021/03/12 08:43:04;;;;;;;0.70;0.20;;;8.10;99.90;;;;;;5045090;28;20440;-72
2021/03/12 08:45:37;;;;;;;0.70;0.20;;;8.10;99.90;;;;;;5055382;28;20487;-72
2021/03/12 08:48:06;;;;;;;1.60;0.20;;;8.10;99.90;;;;;;5056315;28;20433;-73
2021/03/12 08:50:34;;;;;;;0.55;0.20;;;8.10;99.90;;;;;;5056163;28;20425;-73
2021/03/12 08:53:04;;;;;;;0.70;0.10;;;8.10;99.90;;;;;;5054591;28;20532;-72
2021/03/12 08:55:31;;;;;;;0.70;0.20;;;8.10;99.90;;;;;;5056680;28;20520;-71
2021/03/12 08:58:17;;;;;;;2.03;0.20;;;8.00;99.90;;;;;;5055613;28;20441;-72
2021/03/12 09:00:46;;;;;;;1.10;0.20;;;8.40;99.90;;;;;;5055520;28;20483;-72
2021/03/12 09:03:21;;;;;;;0.55;0.20;;;8.40;99.90;;;;;;5057260;28;20429;-71
2021/03/12 09:05:49;;;;;;;1.05;0.20;;;8.50;99.90;;;;;;5057786;28;20421;-73
2021/03/12 09:08:22;;;;;;;0.50;0.30;;;8.70;99.90;;;;;;5056991;28;20429;-71
2021/03/12 09:10:50;;;;;;;0.40;0.20;;;8.60;99.90;;;;;;5051811;28;20431;-71
2021/03/12 09:13:18;;;;;;;0.90;0.20;;;8.70;99.90;;;;;;5050296;28;20433;-71
2021/03/12 09:15:46;;;;;;;1.00;0.20;;;9.00;99.90;;;;;;5044077;28;20438;-71
2021/03/12 09:18:16;;;;;;;1.30;0.20;;;9.20;99.90;;;;;;5055662;28;20444;-70
2021/03/12 09:20:44;;;;;;;0.60;0.20;;;9.40;99.90;;;;;;5055280;28;20425;-72
2021/03/12 09:23:10;;;;;;;1.00;0.20;;;9.30;99.90;;;;;;5054280;28;20452;-72
2021/03/12 09:25:38;;;;;;;0.50;0.20;;;9.30;99.90;;;;;;5055265;28;20421;-71
2021/03/12 09:28:08;;;;;;;1.00;0.20;;;9.30;99.90;;;;;;5055781;28;20748;-71
2021/03/12 09:30:38;;;;;;;0.50;0.20;;;9.40;99.90;;;;;;5055125;28;20883;-72
2021/03/12 09:33:09;;;;;;;1.00;0.10;;;9.30;99.90;;;;;;5054791;28;20433;-72
2021/03/12 09:35:40;;;;;;;0.80;0.20;;;9.30;99.90;;;;;;5054953;28;20429;-74
2021/03/12 09:38:07;;;;;;;0.55;0.20;;;9.40;99.90;;;;;;5055074;28;20736;-71
2021/03/12 09:40:42;;;;;;;0.40;0.20;;;9.40;99.90;;;;;;5049875;28;20415;-72
2021/03/12 09:43:13;;;;;;;0.45;0.20;;;9.40;99.90;;;;;;5048449;28;21175;-72
2021/03/12 09:45:48;;;;;;;0.80;0.20;;;9.20;99.90;;;;;;5056858;28;20768;-72
2021/03/12 09:48:15;;;;;;;0.60;0.20;;;9.10;99.90;;;;;;5044613;28;20459;-72
2021/03/12 09:50:41;;;;;;;0.35;0.10;;;9.30;99.90;;;;;;5048213;28;20429;-72
2021/03/12 09:53:09;;;;;;;0.60;0.20;;;9.40;99.90;;;;;;5050998;28;20838;-72
2021/03/12 09:55:39;;;;;;;0.90;0.10;;;9.50;99.90;;;;;;5053968;28;20432;-73
2021/03/12 09:58:09;;;;;;;0.50;0.20;;;9.70;99.90;;;;;;5053553;28;20441;-72
2021/03/12 10:00:36;;;;;;;0.60;0.20;;;9.60;99.90;;;;;;5048033;28;20487;-73
2021/03/12 10:03:04;;;;;;;0.80;0.20;;;9.40;99.90;;;;;;5050255;28;20433;-73
2021/03/12 10:05:31;;;;;;;0.60;0.10;;;9.50;99.90;;;;;;5051109;28;20425;-74
2021/03/12 10:08:03;;;;;;;0.65;0.20;;;9.50;99.90;;;;;;5050612;28;20749;-74
2021/03/12 10:10:36;;;;;;;0.60;0.10;;;9.60;99.90;;;;;;5048672;28;20474;-74
2021/03/12 10:13:04;;;;;;;0.35;0.10;;;9.70;99.90;;;;;;5051911;28;20437;-74
2021/03/12 10:15:34;;;;;;;0.60;0.10;;;9.60;99.90;;;;;;5052739;28;20737;-76
2021/03/12 10:18:02;;;;;;;1.02;0.10;;;9.70;99.90;;;;;;5039144;28;20437;-75
2021/03/12 10:20:31;;;;;;;0.90;0.10;;;10.10;99.90;;;;;;5052521;28;20429;-74
2021/03/12 10:23:03;;;;;;;0.40;0.10;;;10.10;99.90;;;;;;5052795;28;20429;-74
2021/03/12 10:25:32;;;;;;;0.80;0.20;;;10.30;99.90;;;;;;5053378;28;20421;-73
2021/03/12 10:28:01;;;;;;;0.60;0.10;;;10.50;99.90;;;;;;5052388;28;20441;-74
2021/03/12 10:30:31;;;;;;;0.30;0.10;;;10.20;99.90;;;;;;5052879;28;20425;-73
2021/03/12 10:33:01;;;;;;;0.90;0.30;;;10.10;99.90;;;;;;5053473;28;20441;-75
2021/03/12 10:35:30;;;;;;;0.43;0.10;;;10.20;99.90;;;;;;5053469;28;20764;-77
2021/03/12 10:38:00;;;;;;;0.50;0.10;;;10.70;99.90;;;;;;5050082;28;20459;-72
2021/03/12 10:40:34;;;;;;;1.17;0.13;;;11.50;99.90;;;;;;5048595;28;20478;-74
2021/03/12 10:43:12;;;;;;;0.70;0.20;;;11.40;99.90;;;;;;5051872;28;20436;-73
2021/03/12 10:45:44;;;;;;;1.05;0.20;;;11.70;99.90;;;;;;5050785;28;20421;-73
2021/03/12 10:48:12;;;;;;;0.60;0.10;;;11.30;99.90;;;;;;5049721;28;20468;-73
2021/03/12 10:50:39;;;;;;;0.50;0.20;;;10.90;99.90;;;;;;5049966;28;20806;-74
2021/03/12 10:53:14;;;;;;;0.40;0.20;;;10.70;99.90;;;;;;5048762;28;20518;-73
2021/03/12 10:55:43;;;;;;;0.50;0.20;;;10.70;99.90;;;;;;5049673;28;20426;-73
2021/03/12 10:58:24;;;;;;;3.00;0.10;;;10.50;99.90;;;;;;5049050;28;20532;-74
2021/03/12 11:01:05;;;;;;;1.42;0.15;;;10.30;99.90;;;;;;5046517;28;20900;-73
2021/03/12 11:03:33;;;;;;;0.43;0.13;;;10.40;99.90;;;;;;5045690;28;20487;-73
2021/03/12 11:06:00;;;;;;;0.57;0.20;;;10.70;99.90;;;;;;5050789;28;20436;-73
2021/03/12 11:08:27;;;;;;;1.13;0.20;;;10.60;99.90;;;;;;5047002;28;20482;-75
2021/03/12 11:10:57;;;;;;;0.40;0.20;;;10.60;99.90;;;;;;5052598;28;20479;-74
2021/03/12 11:13:26;;;;;;;0.30;0.10;;;10.80;99.90;;;;;;5051144;28;20437;-72
2021/03/12 11:15:53;;;;;;;2.30;0.30;;;10.90;99.90;;;;;;5046081;28;20490;-73
2021/03/12 11:18:20;;;;;;;0.60;0.20;;;11.40;99.90;;;;;;5051417;28;20437;-73
2021/03/12 11:20:47;;;;;;;0.60;0.20;;;11.50;99.90;;;;;;5050889;28;20915;-74
2021/03/12 11:23:14;;;;;;;0.40;0.10;;;11.70;99.90;;;;;;5051941;28;20437;-74
2021/03/12 11:25:41;;;;;;;0.40;0.20;;;11.60;99.90;;;;;;5049455;28;20544;-72
2021/03/12 11:28:08;;;;;;;1.05;0.20;;;11.70;99.90;;;;;;5049655;28;20433;-73
2021/03/12 11:30:35;;;;;;;0.45;0.20;;;11.90;99.90;;;;;;5051670;28;21115;-73
2021/03/12 11:33:03;;;;;;;0.40;0.10;;;12.00;99.90;;;;;;5050869;28;20444;-76
2021/03/12 11:35:30;;;;;;;0.60;0.20;;;11.50;99.90;;;;;;5051723;28;20433;-72
2021/03/12 11:38:00;;;;;;;0.95;0.10;;;11.60;99.90;;;;;;5052956;28;20433;-75
2021/03/12 11:40:27;;;;;;;0.60;0.13;;;11.50;99.90;;;;;;5052263;28;20959;-74
2021/03/12 11:42:54;;;;;;;0.93;0.20;;;11.40;99.90;;;;;;5051745;28;20476;-75
2021/03/12 11:45:21;;;;;;;0.60;0.13;;;11.50;99.90;;;;;;5052867;28;20430;-75
2021/03/12 11:47:48;;;;;;;0.40;0.20;;;11.40;99.90;;;;;;5049659;28;20463;-73
2021/03/12 11:50:18;;;;;;;0.40;0.10;;;11.70;99.90;;;;;;5052412;28;20464;-75
2021/03/12 11:52:46;;;;;;;0.50;0.20;;;11.70;99.90;;;;;;5053018;28;20437;-75
2021/03/12 11:55:15;;;;;;;0.60;0.10;;;11.40;99.90;;;;;;5057031;28;20475;-75
2021/03/12 11:57:42;;;;;;;1.00;0.20;;;11.10;99.90;;;;;;5053400;28;20440;-74
2021/03/12 12:00:13;;;;;;;0.80;0.20;;;11.10;99.90;;;;;;5057719;28;20441;-74
2021/03/12 12:02:40;;;;;;;0.40;0.10;;;11.40;99.90;;;;;;5054737;28;20879;-75
2021/03/12 12:05:09;;;;;;;1.30;0.30;;;11.50;99.90;;;;;;5054584;28;20856;-75
2021/03/12 12:07:36;;;;;;;0.70;0.20;;;11.70;99.90;;;;;;5052675;28;20433;-74
2021/03/12 12:10:04;;;;;;;0.50;0.20;;;11.60;99.90;;;;;;5055026;28;20451;-74
2021/03/12 12:12:32;;;;;;;0.90;0.20;;;11.60;99.90;;;;;;5053532;28;20971;-75
2021/03/12 12:14:59;;;;;;;0.70;0.20;;;11.80;99.90;;;;;;5053841;28;20428;-75
2021/03/12 12:17:26;;;;;;;1.10;0.30;;;11.90;99.90;;;;;;5057330;28;20871;-74
2021/03/12 12:19:52;;;;;;;0.30;0.10;;;12.60;99.90;;;;;;5048373;28;20435;-75
2021/03/12 12:22:19;;;;;;;0.40;0.20;;;12.50;99.90;;;;;;5035181;28;20434;-73
2021/03/12 12:24:46;;;;;;;0.68;0.20;;;12.50;99.90;;;;;;5050844;28;20486;-74
2021/03/12 12:27:13;;;;;;;1.30;0.20;;;12.50;99.90;;;;;;5046981;28;20918;-74
2021/03/12 12:29:43;;;;;;;0.40;0.20;;;12.80;99.90;;;;;;5051696;28;20844;-74
2021/03/12 12:32:10;;;;;;;1.10;0.30;;;13.00;99.90;;;;;;5043945;28;20437;-73
2021/03/12 12:34:37;;;;;;;2.63;0.40;;;12.80;99.90;;;;;;5048070;28;20425;-74
2021/03/12 12:37:05;;;;;;;0.60;0.20;;;12.40;99.90;;;;;;5054403;28;20437;-73
2021/03/12 12:39:31;;;;;;;0.35;0.10;;;12.20;99.90;;;;;;5046822;28;20435;-73
2021/03/12 12:41:58;;;;;;;0.40;0.20;;;11.80;99.90;;;;;;5054089;28;21756;-72
2021/03/12 12:44:28;;;;;;;0.50;0.20;;;11.90;99.90;;;;;;5055804;28;20834;-72
2021/03/12 12:46:58;;;;;;;0.70;0.15;;;12.40;99.90;;;;;;5055747;28;20436;-73
2021/03/12 12:49:24;;;;;;;0.70;0.20;;;12.70;99.90;;;;;;5054432;28;20479;-72
2021/03/12 12:51:51;;;;;;;0.63;0.20;;;12.60;99.90;;;;;;5055822;28;20429;-72
2021/03/12 12:54:17;;;;;;;0.70;0.20;;;12.20;99.90;;;;;;5055370;28;20421;-72
2021/03/12 12:56:44;;;;;;;0.60;0.10;;;11.70;99.90;;;;;;5053862;28;20828;-72
2021/03/12 12:59:11;;;;;;;0.90;0.10;;;11.40;99.90;;;;;;5054684;28;20437;-72
2021/03/12 13:01:38;;;;;;;0.85;0.20;;;11.20;99.90;;;;;;5051243;28;20467;-73
2021/03/12 13:04:05;;;;;;;0.80;0.20;;;10.90;99.90;;;;;;5051928;28;21040;-73